createdAt,value
2023-02-01T00:04:16.290Z,3.80
2023-02-01T00:09:08.683Z,3.77
2023-02-01T00:14:00.571Z,3.37
2023-02-01T00:18:59.014Z,3.80
2023-02-01T00:23:50.944Z,3.40
2023-02-01T00:28:42.718Z,2.93
2023-02-01T00:33:35.377Z,3.87
2023-02-01T00:38:28.617Z,3.63
2023-02-01T00:43:20.526Z,2.87
2023-02-01T00:48:12.406Z,3.40
2023-02-01T00:53:04.077Z,2.73
2023-02-01T00:57:55.908Z,3.40
2023-02-01T01:02:47.602Z,3.20
2023-02-01T01:07:39.354Z,3.43
2023-02-01T01:12:31.430Z,3.83
2023-02-01T01:17:23.124Z,3.60
2023-02-01T01:22:14.809Z,3.70
2023-02-01T01:27:06.532Z,3.60
2023-02-01T01:31:58.257Z,3.80
2023-02-01T01:36:49.954Z,3.13
2023-02-01T01:41:41.618Z,3.30
2023-02-01T01:46:39.256Z,3.57
2023-02-01T01:51:35.746Z,3.33
2023-02-01T01:56:31.754Z,3.77
2023-02-01T02:01:23.490Z,3.50
2023-02-01T02:06:26.531Z,3.70
2023-02-01T02:11:18.924Z,3.80
2023-02-01T02:16:41.932Z,3.37
2023-02-01T02:21:46.899Z,3.73
2023-02-01T02:27:39.051Z,3.57
2023-02-01T02:33:04.711Z,3.93
2023-02-01T02:38:12.950Z,3.63
2023-02-01T02:43:44.825Z,4.13
2023-02-01T02:48:53.335Z,4.77
2023-02-01T02:54:16.664Z,4.63
2023-02-01T02:59:32.477Z,4.37
2023-02-01T03:04:24.445Z,4.27
2023-02-01T03:09:50.409Z,4.47
2023-02-01T03:14:47.830Z,4.50
2023-02-01T03:19:50.920Z,4.63
2023-02-01T03:24:54.757Z,4.60
2023-02-01T03:30:10.513Z,5.33
2023-02-01T03:35:05.456Z,4.83
2023-02-01T03:40:12.503Z,4.67
2023-02-01T03:45:32.185Z,5.17
2023-02-01T03:50:28.574Z,4.67
2023-02-01T03:55:24.374Z,5.43
2023-02-01T04:00:26.214Z,4.60
2023-02-01T04:05:18.272Z,5.07
2023-02-01T04:10:12.348Z,5.10
2023-02-01T04:15:05.159Z,4.87
2023-02-01T04:19:57.247Z,4.67
2023-02-01T04:24:49.250Z,5.23
2023-02-01T04:29:41.877Z,5.83
2023-02-01T04:34:33.790Z,5.30
2023-02-01T04:39:25.515Z,5.03
2023-02-01T04:44:19.399Z,4.63
2023-02-01T04:49:12.602Z,5.43
2023-02-01T04:54:05.034Z,5.70
2023-02-01T04:58:56.948Z,5.17
2023-02-01T05:09:03.594Z,4.87
2023-02-01T05:19:03.767Z,5.33
2023-02-01T05:29:24.038Z,4.63
2023-02-01T05:39:31.236Z,5.23
2023-02-01T07:11:26.940Z,4.27
2023-02-01T08:33:24.282Z,5.60
2023-02-01T16:38:34.675Z,1.90
2023-02-01T16:59:04.276Z,1.77
2023-02-01T18:27:01.807Z,1.90
2023-02-01T21:11:35.868Z,1.80
2023-02-01T21:16:36.536Z,1.07
2023-02-01T21:52:34.743Z,1.27
2023-02-01T23:09:43.532Z,2.10
2023-02-01T23:25:12.921Z,1.40
